Amistad, New Mexico
Current Conditions -  °F | °C
As of 3:53 AM on Thursday 23 Oct 2014 (Local Time) from KDHT Reporting Station
Moderate Fog Moderate Fog  
Wind Chill: 11°   Ceiling: 100
Heat Index: 11°   Visibility: 0mi
Dew Point: 11°   Wind: 6mph
Humidity: 97%   Direction: 230°SW
Pressure: 30.1"   Gusts: NA
Location:  35.92°N, 103.16°W
Report Text: KDHT 230953Z AUTO 23005KT M1/4SM FG VV001 11/11 A3010 RMK AO2 SLP154 T01110106
Loading
Personal Weather Stations






























Interactive Weather Map
Tropical Storm Tracking
New forecast layout! Learn more

10-Day Weather Forecast

Advertisements
Track Severe Weather on mobile